This is the latest recevied weather packets stored in our database for station/object DM3FAM-13. If no packets are shown the sender has not sent any weather packets the latest 10 day(s).
| Time | Temp. | Humidity | Pressure | Rain* | Wind** | Luminosity | Snow |
|---|---|---|---|---|---|---|---|
| 1777821030 | 20° C | 36% | 1015.3 hPa | 0 mm | - | 120 W/m² | - |
| 1777820431 | 20° C | 35% | 1015.2 hPa | 0 mm | - | 147 W/m² | - |
| 1777818030 | 23.89° C | 30% | 1014.7 hPa | 0 mm | - | 426 W/m² | - |
| 1777817430 | 23.89° C | 33% | 1014.7 hPa | 0 mm | - | 477 W/m² | - |
| 1777815631 | 23.89° C | 29% | 1014.3 hPa | 0 mm | - | 487 W/m² | - |
| 1777814431 | 23.89° C | 31% | 1014.7 hPa | 0 mm | - | 563 W/m² | - |
| 1777813830 | 23.33° C | 32% | 1014.7 hPa | 0 mm | - | 575 W/m² | - |
| 1777811431 | 22.22° C | 40% | 1014.8 hPa | 0 mm | - | 382 W/m² | - |
| 1777810832 | 22.22° C | 38% | 1014.7 hPa | 0 mm | - | 382 W/m² | - |
| 1777810231 | 22.78° C | 39% | 1014.7 hPa | 0 mm | - | 420 W/m² | - |
| 1777806630 | 23.33° C | 35% | 1015 hPa | 0 mm | - | 275 W/m² | - |
| 1777806031 | 22.78° C | 38% | 1015 hPa | 0 mm | - | 282 W/m² | - |
| 1777804831 | 21.67° C | 37% | 1015.2 hPa | 0 mm | - | 228 W/m² | - |
| 1777804230 | 21.67° C | 39% | 1015.3 hPa | 0 mm | - | 227 W/m² | - |
| 1777803030 | 21.11° C | 35% | 1015.4 hPa | 0 mm | - | 169 W/m² | - |
| 1777801831 | 21.67° C | 38% | 1015.6 hPa | 0 mm | - | 207 W/m² | - |
| 1777801231 | 21.67° C | 38% | 1015.7 hPa | 0 mm | - | 246 W/m² | - |
| 1777800631 | 21.67° C | 37% | 1015.7 hPa | 0 mm | - | 243 W/m² | - |
| 1777800031 | 21.67° C | 38% | 1015.9 hPa | 0 mm | - | 247 W/m² | - |
| 1777799430 | 21.67° C | 36% | 1015.9 hPa | 0 mm | - | 206 W/m² | - |
| 1777798830 | 21.67° C | 37% | 1015.9 hPa | 0 mm | - | 226 W/m² | - |
| 1777798230 | 21.11° C | 39% | 1016 hPa | 0 mm | - | 226 W/m² | - |
| 1777797630 | 20.56° C | 39% | 1016.1 hPa | 0 mm | - | 163 W/m² | - |
| 1777797030 | 20.56° C | 41% | 1016.1 hPa | 0 mm | - | 131 W/m² | - |
| 1777796430 | 20° C | 43% | 1016.4 hPa | 0 mm | - | 157 W/m² | - |
* Rain latest hour (hover to see other rain measurements)
** Current wind speed in m/s (hover to see current wind gust speed)